sensor_id;sensor_type;location;lat;lon;timestamp;temperature;humidity
36186;DHT22;22228;53.222;7.446;2022-09-01T00:01:12;14.40;99.90
36186;DHT22;22228;53.222;7.446;2022-09-01T00:03:39;14.30;99.90
36186;DHT22;22228;53.222;7.446;2022-09-01T00:05:59;14.30;99.90
36186;DHT22;22228;53.222;7.446;2022-09-01T00:08:23;14.30;99.90
36186;DHT22;22228;53.222;7.446;2022-09-01T00:10:44;14.30;99.90
36186;DHT22;22228;53.222;7.446;2022-09-01T00:13:05;14.30;99.90
36186;DHT22;22228;53.222;7.446;2022-09-01T00:15:26;14.40;99.90
36186;DHT22;22228;53.222;7.446;2022-09-01T00:17:46;14.30;99.90
36186;DHT22;22228;53.222;7.446;2022-09-01T00:20:08;14.30;99.90
36186;DHT22;22228;53.222;7.446;2022-09-01T00:22:28;14.30;99.90
36186;DHT22;22228;53.222;7.446;2022-09-01T00:24:50;14.30;99.90
36186;DHT22;22228;53.222;7.446;2022-09-01T00:27:11;14.20;99.90
36186;DHT22;22228;53.222;7.446;2022-09-01T00:29:32;14.20;99.90
36186;DHT22;22228;53.222;7.446;2022-09-01T00:31:52;14.20;99.90
36186;DHT22;22228;53.222;7.446;2022-09-01T00:34:13;14.10;99.90
36186;DHT22;22228;53.222;7.446;2022-09-01T00:36:34;14.10;99.90
36186;DHT22;22228;53.222;7.446;2022-09-01T00:38:54;14.10;99.90
36186;DHT22;22228;53.222;7.446;2022-09-01T00:41:18;14.10;99.90
36186;DHT22;22228;53.222;7.446;2022-09-01T00:43:41;14.10;99.90
36186;DHT22;22228;53.222;7.446;2022-09-01T00:46:02;14.10;99.90
36186;DHT22;22228;53.222;7.446;2022-09-01T00:48:23;14.10;99.90
36186;DHT22;22228;53.222;7.446;2022-09-01T00:50:43;14.20;99.90
36186;DHT22;22228;53.222;7.446;2022-09-01T00:53:05;14.20;99.90
36186;DHT22;22228;53.222;7.446;2022-09-01T00:55:29;14.20;99.90
36186;DHT22;22228;53.222;7.446;2022-09-01T00:57:51;14.20;99.90
36186;DHT22;22228;53.222;7.446;2022-09-01T01:00:16;14.20;99.90
36186;DHT22;22228;53.222;7.446;2022-09-01T01:02:37;14.20;99.90
36186;DHT22;22228;53.222;7.446;2022-09-01T01:04:58;14.30;99.90
36186;DHT22;22228;53.222;7.446;2022-09-01T01:07:19;14.30;99.90
36186;DHT22;22228;53.222;7.446;2022-09-01T01:09:43;14.40;99.90
36186;DHT22;22228;53.222;7.446;2022-09-01T01:12:05;14.40;99.90
36186;DHT22;22228;53.222;7.446;2022-09-01T01:14:33;14.50;99.90
36186;DHT22;22228;53.222;7.446;2022-09-01T01:16:55;14.50;99.90
36186;DHT22;22228;53.222;7.446;2022-09-01T01:19:22;14.50;99.90
36186;DHT22;22228;53.222;7.446;2022-09-01T01:22:04;14.60;99.90
36186;DHT22;22228;53.222;7.446;2022-09-01T01:24:57;14.70;99.90
36186;DHT22;22228;53.222;7.446;2022-09-01T01:27:20;14.60;99.90
36186;DHT22;22228;53.222;7.446;2022-09-01T01:29:41;14.60;99.90
36186;DHT22;22228;53.222;7.446;2022-09-01T01:32:02;14.60;99.90
36186;DHT22;22228;53.222;7.446;2022-09-01T01:34:30;14.60;99.90
36186;DHT22;22228;53.222;7.446;2022-09-01T01:36:52;14.50;99.90
36186;DHT22;22228;53.222;7.446;2022-09-01T01:39:21;14.60;99.90
36186;DHT22;22228;53.222;7.446;2022-09-01T01:41:45;14.50;99.90
36186;DHT22;22228;53.222;7.446;2022-09-01T01:44:08;14.50;99.90
36186;DHT22;22228;53.222;7.446;2022-09-01T01:46:30;14.50;99.90
36186;DHT22;22228;53.222;7.446;2022-09-01T01:48:52;14.50;99.90
36186;DHT22;22228;53.222;7.446;2022-09-01T01:51:16;14.50;99.90
36186;DHT22;22228;53.222;7.446;2022-09-01T01:53:40;14.40;99.90
36186;DHT22;22228;53.222;7.446;2022-09-01T01:56:01;14.50;99.90
36186;DHT22;22228;53.222;7.446;2022-09-01T01:58:27;14.40;99.90
36186;DHT22;22228;53.222;7.446;2022-09-01T02:00:51;14.50;99.90
36186;DHT22;22228;53.222;7.446;2022-09-01T02:03:12;14.40;99.90
36186;DHT22;22228;53.222;7.446;2022-09-01T02:05:36;14.40;99.90
36186;DHT22;22228;53.222;7.446;2022-09-01T02:07:59;14.40;99.90
36186;DHT22;22228;53.222;7.446;2022-09-01T02:10:24;14.40;99.90
36186;DHT22;22228;53.222;7.446;2022-09-01T02:12:44;14.50;99.90
36186;DHT22;22228;53.222;7.446;2022-09-01T02:15:07;14.50;99.90
36186;DHT22;22228;53.222;7.446;2022-09-01T02:17:30;14.50;99.90
36186;DHT22;22228;53.222;7.446;2022-09-01T02:19:51;14.50;99.90
36186;DHT22;22228;53.222;7.446;2022-09-01T02:22:15;14.50;99.90
36186;DHT22;22228;53.222;7.446;2022-09-01T02:24:37;14.50;99.90
36186;DHT22;22228;53.222;7.446;2022-09-01T02:27:04;14.60;99.90
36186;DHT22;22228;53.222;7.446;2022-09-01T02:29:24;14.60;99.90
36186;DHT22;22228;53.222;7.446;2022-09-01T02:31:51;14.70;99.90
36186;DHT22;22228;53.222;7.446;2022-09-01T02:34:12;14.70;99.90
36186;DHT22;22228;53.222;7.446;2022-09-01T02:36:33;14.70;99.90
36186;DHT22;22228;53.222;7.446;2022-09-01T02:38:55;14.70;99.90
36186;DHT22;22228;53.222;7.446;2022-09-01T02:41:17;14.80;99.90
36186;DHT22;22228;53.222;7.446;2022-09-01T02:43:40;14.70;99.90
36186;DHT22;22228;53.222;7.446;2022-09-01T02:46:01;14.70;99.90
36186;DHT22;22228;53.222;7.446;2022-09-01T02:48:30;14.80;99.90
36186;DHT22;22228;53.222;7.446;2022-09-01T02:50:54;14.80;99.90
36186;DHT22;22228;53.222;7.446;2022-09-01T02:53:17;14.80;99.90
36186;DHT22;22228;53.222;7.446;2022-09-01T02:55:39;14.80;99.90
36186;DHT22;22228;53.222;7.446;2022-09-01T02:58:00;14.90;99.90
36186;DHT22;22228;53.222;7.446;2022-09-01T03:00:20;14.80;99.90
36186;DHT22;22228;53.222;7.446;2022-09-01T03:02:49;14.80;99.90
36186;DHT22;22228;53.222;7.446;2022-09-01T03:05:12;14.90;99.90
36186;DHT22;22228;53.222;7.446;2022-09-01T03:07:34;14.90;99.90
36186;DHT22;22228;53.222;7.446;2022-09-01T03:09:56;14.90;99.90
36186;DHT22;22228;53.222;7.446;2022-09-01T03:12:17;14.90;99.90
36186;DHT22;22228;53.222;7.446;2022-09-01T03:14:37;14.90;99.90
36186;DHT22;22228;53.222;7.446;2022-09-01T03:16:58;14.90;99.90
36186;DHT22;22228;53.222;7.446;2022-09-01T03:19:19;14.80;99.90
36186;DHT22;22228;53.222;7.446;2022-09-01T03:21:43;14.80;99.90
36186;DHT22;22228;53.222;7.446;2022-09-01T03:24:08;14.80;99.90
36186;DHT22;22228;53.222;7.446;2022-09-01T03:26:31;14.70;99.90
36186;DHT22;22228;53.222;7.446;2022-09-01T03:28:51;14.60;99.90
36186;DHT22;22228;53.222;7.446;2022-09-01T03:31:12;14.60;99.90
36186;DHT22;22228;53.222;7.446;2022-09-01T03:33:32;14.50;99.90
36186;DHT22;22228;53.222;7.446;2022-09-01T03:35:55;14.50;99.90
36186;DHT22;22228;53.222;7.446;2022-09-01T03:38:17;14.40;99.90
36186;DHT22;22228;53.222;7.446;2022-09-01T03:40:41;14.40;99.90
36186;DHT22;22228;53.222;7.446;2022-09-01T03:43:05;14.30;99.90
36186;DHT22;22228;53.222;7.446;2022-09-01T03:45:28;14.30;99.90
36186;DHT22;22228;53.222;7.446;2022-09-01T03:47:50;14.30;99.90
36186;DHT22;22228;53.222;7.446;2022-09-01T03:50:14;14.30;99.90
36186;DHT22;22228;53.222;7.446;2022-09-01T03:52:38;14.30;99.90
36186;DHT22;22228;53.222;7.446;2022-09-01T03:55:00;14.30;99.90
36186;DHT22;22228;53.222;7.446;2022-09-01T03:57:21;14.30;99.90
36186;DHT22;22228;53.222;7.446;2022-09-01T03:59:42;14.30;99.90
36186;DHT22;22228;53.222;7.446;2022-09-01T04:02:03;14.30;99.90
36186;DHT22;22228;53.222;7.446;2022-09-01T04:04:24;14.30;99.90
36186;DHT22;22228;53.222;7.446;2022-09-01T04:06:45;14.30;99.90
36186;DHT22;22228;53.222;7.446;2022-09-01T04:09:06;14.20;99.90
36186;DHT22;22228;53.222;7.446;2022-09-01T04:11:31;14.30;99.90
36186;DHT22;22228;53.222;7.446;2022-09-01T04:13:51;14.30;99.90
36186;DHT22;22228;53.222;7.446;2022-09-01T04:16:16;14.30;99.90
36186;DHT22;22228;53.222;7.446;2022-09-01T04:18:59;14.30;99.90
36186;DHT22;22228;53.222;7.446;2022-09-01T04:21:19;14.30;99.90
36186;DHT22;22228;53.222;7.446;2022-09-01T04:23:40;14.30;99.90
36186;DHT22;22228;53.222;7.446;2022-09-01T04:26:04;14.20;99.90
36186;DHT22;22228;53.222;7.446;2022-09-01T04:28:32;14.20;99.90
36186;DHT22;22228;53.222;7.446;2022-09-01T04:30:56;14.10;99.90
36186;DHT22;22228;53.222;7.446;2022-09-01T04:33:18;14.10;99.90
36186;DHT22;22228;53.222;7.446;2022-09-01T04:35:38;14.00;99.90
36186;DHT22;22228;53.222;7.446;2022-09-01T04:37:59;14.00;99.90
36186;DHT22;22228;53.222;7.446;2022-09-01T04:40:20;14.00;99.90
36186;DHT22;22228;53.222;7.446;2022-09-01T04:42:41;14.00;99.90
36186;DHT22;22228;53.222;7.446;2022-09-01T04:45:05;14.10;99.90
36186;DHT22;22228;53.222;7.446;2022-09-01T04:47:29;14.10;99.90
36186;DHT22;22228;53.222;7.446;2022-09-01T04:49:50;14.10;99.90
36186;DHT22;22228;53.222;7.446;2022-09-01T04:52:18;14.20;99.90
36186;DHT22;22228;53.222;7.446;2022-09-01T04:54:39;14.10;99.90
36186;DHT22;22228;53.222;7.446;2022-09-01T04:56:59;14.10;99.90
36186;DHT22;22228;53.222;7.446;2022-09-01T04:59:23;14.00;99.90
36186;DHT22;22228;53.222;7.446;2022-09-01T05:01:51;14.00;99.90
36186;DHT22;22228;53.222;7.446;2022-09-01T05:04:15;13.90;99.90
36186;DHT22;22228;53.222;7.446;2022-09-01T05:06:36;13.90;99.90
36186;DHT22;22228;53.222;7.446;2022-09-01T05:08:58;13.90;99.90
36186;DHT22;22228;53.222;7.446;2022-09-01T05:11:40;14.00;99.90
36186;DHT22;22228;53.222;7.446;2022-09-01T05:14:12;14.00;99.90
36186;DHT22;22228;53.222;7.446;2022-09-01T05:16:38;14.10;99.90
36186;DHT22;22228;53.222;7.446;2022-09-01T05:19:00;14.10;99.90
36186;DHT22;22228;53.222;7.446;2022-09-01T05:21:24;14.10;99.90
36186;DHT22;22228;53.222;7.446;2022-09-01T05:23:48;14.20;99.90
36186;DHT22;22228;53.222;7.446;2022-09-01T05:26:12;14.20;99.90
36186;DHT22;22228;53.222;7.446;2022-09-01T05:28:35;14.10;99.90
36186;DHT22;22228;53.222;7.446;2022-09-01T05:30:59;14.20;99.90
36186;DHT22;22228;53.222;7.446;2022-09-01T05:33:20;14.20;99.90
36186;DHT22;22228;53.222;7.446;2022-09-01T05:35:52;14.30;99.90
36186;DHT22;22228;53.222;7.446;2022-09-01T05:38:14;14.40;99.90
36186;DHT22;22228;53.222;7.446;2022-09-01T05:40:34;14.40;99.90
36186;DHT22;22228;53.222;7.446;2022-09-01T05:42:59;14.40;99.90
36186;DHT22;22228;53.222;7.446;2022-09-01T05:45:20;14.50;99.90
36186;DHT22;22228;53.222;7.446;2022-09-01T05:47:44;14.60;99.90
36186;DHT22;22228;53.222;7.446;2022-09-01T05:50:06;14.70;99.90
36186;DHT22;22228;53.222;7.446;2022-09-01T05:52:33;14.80;99.90
36186;DHT22;22228;53.222;7.446;2022-09-01T05:54:55;14.80;99.90
36186;DHT22;22228;53.222;7.446;2022-09-01T05:57:16;14.90;99.90
36186;DHT22;22228;53.222;7.446;2022-09-01T05:59:38;15.00;99.90
36186;DHT22;22228;53.222;7.446;2022-09-01T06:02:04;15.10;99.90
36186;DHT22;22228;53.222;7.446;2022-09-01T06:04:26;15.10;99.90
36186;DHT22;22228;53.222;7.446;2022-09-01T06:06:54;15.20;99.90
36186;DHT22;22228;53.222;7.446;2022-09-01T06:09:17;15.30;99.90
36186;DHT22;22228;53.222;7.446;2022-09-01T06:11:38;15.30;99.90
36186;DHT22;22228;53.222;7.446;2022-09-01T06:14:00;15.40;99.90
36186;DHT22;22228;53.222;7.446;2022-09-01T06:16:21;15.40;99.90
36186;DHT22;22228;53.222;7.446;2022-09-01T06:18:44;15.50;99.90
36186;DHT22;22228;53.222;7.446;2022-09-01T06:21:05;15.50;99.90
36186;DHT22;22228;53.222;7.446;2022-09-01T06:23:27;15.50;99.90
36186;DHT22;22228;53.222;7.446;2022-09-01T06:25:49;15.50;99.90
36186;DHT22;22228;53.222;7.446;2022-09-01T06:28:13;15.60;99.90
36186;DHT22;22228;53.222;7.446;2022-09-01T06:30:34;15.60;99.90
36186;DHT22;22228;53.222;7.446;2022-09-01T06:32:59;15.70;99.90
36186;DHT22;22228;53.222;7.446;2022-09-01T06:35:21;15.80;99.90
36186;DHT22;22228;53.222;7.446;2022-09-01T06:37:44;15.90;99.90
36186;DHT22;22228;53.222;7.446;2022-09-01T06:40:15;16.00;99.90
36186;DHT22;22228;53.222;7.446;2022-09-01T06:42:37;16.10;99.90
36186;DHT22;22228;53.222;7.446;2022-09-01T06:44:59;16.10;99.90
36186;DHT22;22228;53.222;7.446;2022-09-01T06:47:21;16.10;99.90
36186;DHT22;22228;53.222;7.446;2022-09-01T06:49:42;16.10;99.90
36186;DHT22;22228;53.222;7.446;2022-09-01T06:52:08;16.20;99.90
36186;DHT22;22228;53.222;7.446;2022-09-01T06:54:30;16.30;99.90
36186;DHT22;22228;53.222;7.446;2022-09-01T06:56:55;16.30;99.90
36186;DHT22;22228;53.222;7.446;2022-09-01T06:59:18;16.40;99.90
36186;DHT22;22228;53.222;7.446;2022-09-01T07:01:41;16.40;99.90
36186;DHT22;22228;53.222;7.446;2022-09-01T07:04:02;16.40;99.90
36186;DHT22;22228;53.222;7.446;2022-09-01T07:06:30;16.50;99.90
36186;DHT22;22228;53.222;7.446;2022-09-01T07:09:19;16.50;99.90
36186;DHT22;22228;53.222;7.446;2022-09-01T07:11:59;16.60;99.90
36186;DHT22;22228;53.222;7.446;2022-09-01T07:14:23;16.70;99.90
36186;DHT22;22228;53.222;7.446;2022-09-01T07:16:44;16.70;99.90
36186;DHT22;22228;53.222;7.446;2022-09-01T07:19:06;16.90;99.90
36186;DHT22;22228;53.222;7.446;2022-09-01T07:21:35;17.00;99.90
36186;DHT22;22228;53.222;7.446;2022-09-01T07:23:55;17.20;99.90
36186;DHT22;22228;53.222;7.446;2022-09-01T07:26:19;17.30;99.90
36186;DHT22;22228;53.222;7.446;2022-09-01T07:28:41;17.50;99.90
36186;DHT22;22228;53.222;7.446;2022-09-01T07:31:06;17.50;99.90
36186;DHT22;22228;53.222;7.446;2022-09-01T07:33:28;17.40;99.90
36186;DHT22;22228;53.222;7.446;2022-09-01T07:35:52;17.40;99.90
36186;DHT22;22228;53.222;7.446;2022-09-01T07:38:14;17.20;99.90
36186;DHT22;22228;53.222;7.446;2022-09-01T07:40:39;17.10;99.90
36186;DHT22;22228;53.222;7.446;2022-09-01T07:43:04;17.20;99.90
36186;DHT22;22228;53.222;7.446;2022-09-01T07:45:45;17.30;99.90
36186;DHT22;22228;53.222;7.446;2022-09-01T07:48:09;17.40;99.90
36186;DHT22;22228;53.222;7.446;2022-09-01T07:50:41;17.60;99.90
36186;DHT22;22228;53.222;7.446;2022-09-01T07:53:03;17.70;99.90
36186;DHT22;22228;53.222;7.446;2022-09-01T07:55:24;17.80;99.90
36186;DHT22;22228;53.222;7.446;2022-09-01T07:57:46;17.90;99.90
36186;DHT22;22228;53.222;7.446;2022-09-01T08:00:10;17.90;99.90
36186;DHT22;22228;53.222;7.446;2022-09-01T08:02:34;18.00;99.90
36186;DHT22;22228;53.222;7.446;2022-09-01T08:04:58;18.10;99.90
36186;DHT22;22228;53.222;7.446;2022-09-01T08:07:19;18.10;99.90
36186;DHT22;22228;53.222;7.446;2022-09-01T08:09:40;18.10;99.90
36186;DHT22;22228;53.222;7.446;2022-09-01T08:12:01;18.20;99.90
36186;DHT22;22228;53.222;7.446;2022-09-01T08:14:23;18.20;99.90
36186;DHT22;22228;53.222;7.446;2022-09-01T08:16:44;18.20;99.90
36186;DHT22;22228;53.222;7.446;2022-09-01T08:19:05;18.20;99.90
36186;DHT22;22228;53.222;7.446;2022-09-01T08:21:39;18.30;99.90
36186;DHT22;22228;53.222;7.446;2022-09-01T08:24:14;18.30;99.90
36186;DHT22;22228;53.222;7.446;2022-09-01T08:26:35;18.40;99.90
36186;DHT22;22228;53.222;7.446;2022-09-01T08:28:57;18.50;99.90
36186;DHT22;22228;53.222;7.446;2022-09-01T08:31:24;18.60;99.90
36186;DHT22;22228;53.222;7.446;2022-09-01T08:33:48;18.70;99.90
36186;DHT22;22228;53.222;7.446;2022-09-01T08:36:10;18.80;99.90
36186;DHT22;22228;53.222;7.446;2022-09-01T08:38:32;18.80;99.90
36186;DHT22;22228;53.222;7.446;2022-09-01T08:40:54;18.90;99.90
36186;DHT22;22228;53.222;7.446;2022-09-01T08:43:18;19.00;99.90
36186;DHT22;22228;53.222;7.446;2022-09-01T08:45:46;19.10;99.90
36186;DHT22;22228;53.222;7.446;2022-09-01T08:48:13;19.20;99.90
36186;DHT22;22228;53.222;7.446;2022-09-01T08:50:36;19.30;99.90
36186;DHT22;22228;53.222;7.446;2022-09-01T08:53:10;19.40;99.90
36186;DHT22;22228;53.222;7.446;2022-09-01T08:55:38;19.40;99.90
36186;DHT22;22228;53.222;7.446;2022-09-01T08:58:01;19.50;99.90
36186;DHT22;22228;53.222;7.446;2022-09-01T09:00:45;19.70;99.90
36186;DHT22;22228;53.222;7.446;2022-09-01T09:03:18;19.80;99.90
36186;DHT22;22228;53.222;7.446;2022-09-01T09:05:56;19.90;99.90
36186;DHT22;22228;53.222;7.446;2022-09-01T09:08:53;20.00;99.90
36186;DHT22;22228;53.222;7.446;2022-09-01T09:11:26;20.10;99.90
36186;DHT22;22228;53.222;7.446;2022-09-01T09:13:56;20.20;99.90
36186;DHT22;22228;53.222;7.446;2022-09-01T09:16:24;20.20;99.90
36186;DHT22;22228;53.222;7.446;2022-09-01T09:18:49;20.20;99.90
36186;DHT22;22228;53.222;7.446;2022-09-01T09:21:14;20.30;99.90
36186;DHT22;22228;53.222;7.446;2022-09-01T09:23:41;20.50;99.90
36186;DHT22;22228;53.222;7.446;2022-09-01T09:26:03;20.60;99.90
36186;DHT22;22228;53.222;7.446;2022-09-01T09:28:25;20.80;99.90
36186;DHT22;22228;53.222;7.446;2022-09-01T09:30:45;20.90;99.90
36186;DHT22;22228;53.222;7.446;2022-09-01T09:33:06;21.00;99.90
36186;DHT22;22228;53.222;7.446;2022-09-01T09:35:31;21.00;99.90
36186;DHT22;22228;53.222;7.446;2022-09-01T09:37:52;21.10;99.90
36186;DHT22;22228;53.222;7.446;2022-09-01T09:40:15;21.20;99.90
36186;DHT22;22228;53.222;7.446;2022-09-01T09:42:37;21.20;99.90
36186;DHT22;22228;53.222;7.446;2022-09-01T09:44:59;21.30;99.90
36186;DHT22;22228;53.222;7.446;2022-09-01T09:47:37;21.40;99.90
36186;DHT22;22228;53.222;7.446;2022-09-01T09:50:15;21.60;99.90
36186;DHT22;22228;53.222;7.446;2022-09-01T09:52:36;21.60;99.90
36186;DHT22;22228;53.222;7.446;2022-09-01T09:55:02;21.70;99.90
36186;DHT22;22228;53.222;7.446;2022-09-01T09:57:22;21.80;99.90
36186;DHT22;22228;53.222;7.446;2022-09-01T09:59:47;22.00;99.90
36186;DHT22;22228;53.222;7.446;2022-09-01T10:02:20;22.00;99.90
36186;DHT22;22228;53.222;7.446;2022-09-01T10:04:42;22.10;99.90
36186;DHT22;22228;53.222;7.446;2022-09-01T10:07:23;22.10;99.90
36186;DHT22;22228;53.222;7.446;2022-09-01T10:09:43;22.00;99.90
36186;DHT22;22228;53.222;7.446;2022-09-01T10:12:04;22.10;99.90
36186;DHT22;22228;53.222;7.446;2022-09-01T10:14:29;22.20;99.90
36186;DHT22;22228;53.222;7.446;2022-09-01T10:16:53;22.30;99.90
36186;DHT22;22228;53.222;7.446;2022-09-01T10:19:16;22.40;99.90
36186;DHT22;22228;53.222;7.446;2022-09-01T10:21:39;22.40;99.90
36186;DHT22;22228;53.222;7.446;2022-09-01T10:24:05;22.40;99.90
36186;DHT22;22228;53.222;7.446;2022-09-01T10:26:31;22.50;99.90
36186;DHT22;22228;53.222;7.446;2022-09-01T10:28:56;22.70;99.90
36186;DHT22;22228;53.222;7.446;2022-09-01T10:31:19;22.70;99.90
36186;DHT22;22228;53.222;7.446;2022-09-01T10:33:40;22.50;99.90
36186;DHT22;22228;53.222;7.446;2022-09-01T10:36:05;22.40;99.90
36186;DHT22;22228;53.222;7.446;2022-09-01T10:38:27;22.40;99.90
36186;DHT22;22228;53.222;7.446;2022-09-01T10:40:49;22.60;99.90
36186;DHT22;22228;53.222;7.446;2022-09-01T10:43:43;22.80;99.90
36186;DHT22;22228;53.222;7.446;2022-09-01T10:46:09;22.90;99.90
36186;DHT22;22228;53.222;7.446;2022-09-01T10:48:36;23.00;99.90
36186;DHT22;22228;53.222;7.446;2022-09-01T10:51:41;23.00;99.90
36186;DHT22;22228;53.222;7.446;2022-09-01T10:54:02;23.00;99.90
36186;DHT22;22228;53.222;7.446;2022-09-01T10:56:26;23.30;99.90
36186;DHT22;22228;53.222;7.446;2022-09-01T10:59:05;23.60;99.90
36186;DHT22;22228;53.222;7.446;2022-09-01T11:02:09;23.90;99.90
36186;DHT22;22228;53.222;7.446;2022-09-01T11:07:32;24.50;99.90
36186;DHT22;22228;53.222;7.446;2022-09-01T11:10:20;24.70;99.90
36186;DHT22;22228;53.222;7.446;2022-09-01T11:12:58;24.90;99.90
36186;DHT22;22228;53.222;7.446;2022-09-01T11:15:37;24.60;99.90
36186;DHT22;22228;53.222;7.446;2022-09-01T11:17:58;25.00;99.90
36186;DHT22;22228;53.222;7.446;2022-09-01T11:20:23;25.60;99.90
36186;DHT22;22228;53.222;7.446;2022-09-01T11:22:58;26.10;99.90
36186;DHT22;22228;53.222;7.446;2022-09-01T11:25:36;26.10;99.90
36186;DHT22;22228;53.222;7.446;2022-09-01T11:28:08;25.90;99.90
36186;DHT22;22228;53.222;7.446;2022-09-01T11:30:36;25.50;99.90
36186;DHT22;22228;53.222;7.446;2022-09-01T11:33:08;25.20;99.90
36186;DHT22;22228;53.222;7.446;2022-09-01T11:35:31;24.90;99.90
36186;DHT22;22228;53.222;7.446;2022-09-01T11:37:55;24.60;99.90
36186;DHT22;22228;53.222;7.446;2022-09-01T11:40:20;24.30;99.90
36186;DHT22;22228;53.222;7.446;2022-09-01T11:42:43;24.10;99.90
36186;DHT22;22228;53.222;7.446;2022-09-01T11:45:09;23.90;99.90
36186;DHT22;22228;53.222;7.446;2022-09-01T11:47:36;24.00;99.90
36186;DHT22;22228;53.222;7.446;2022-09-01T11:49:59;24.00;99.90
36186;DHT22;22228;53.222;7.446;2022-09-01T11:52:22;24.00;99.90
36186;DHT22;22228;53.222;7.446;2022-09-01T11:54:45;24.00;99.90
36186;DHT22;22228;53.222;7.446;2022-09-01T11:57:23;23.90;99.90
36186;DHT22;22228;53.222;7.446;2022-09-01T11:59:44;23.80;99.90
36186;DHT22;22228;53.222;7.446;2022-09-01T12:02:04;23.80;99.90
36186;DHT22;22228;53.222;7.446;2022-09-01T12:04:31;23.80;99.90
36186;DHT22;22228;53.222;7.446;2022-09-01T12:06:54;23.80;99.90
36186;DHT22;22228;53.222;7.446;2022-09-01T12:09:16;23.90;99.90
36186;DHT22;22228;53.222;7.446;2022-09-01T12:11:40;24.00;99.90
36186;DHT22;22228;53.222;7.446;2022-09-01T12:14:03;24.10;99.90
36186;DHT22;22228;53.222;7.446;2022-09-01T12:16:24;24.10;99.90
36186;DHT22;22228;53.222;7.446;2022-09-01T12:18:46;24.20;99.90
36186;DHT22;22228;53.222;7.446;2022-09-01T12:21:07;24.20;99.90
36186;DHT22;22228;53.222;7.446;2022-09-01T12:23:29;24.20;99.90
36186;DHT22;22228;53.222;7.446;2022-09-01T12:25:52;24.20;99.90
36186;DHT22;22228;53.222;7.446;2022-09-01T12:28:15;24.20;99.90
36186;DHT22;22228;53.222;7.446;2022-09-01T12:30:35;24.20;99.90
36186;DHT22;22228;53.222;7.446;2022-09-01T12:32:58;24.20;99.90
36186;DHT22;22228;53.222;7.446;2022-09-01T12:35:21;24.30;99.90
36186;DHT22;22228;53.222;7.446;2022-09-01T12:37:42;24.20;99.90
36186;DHT22;22228;53.222;7.446;2022-09-01T12:40:03;24.20;99.90
36186;DHT22;22228;53.222;7.446;2022-09-01T12:42:27;24.30;99.90
36186;DHT22;22228;53.222;7.446;2022-09-01T12:44:51;24.50;99.90
36186;DHT22;22228;53.222;7.446;2022-09-01T12:47:13;24.50;99.90
36186;DHT22;22228;53.222;7.446;2022-09-01T12:49:53;24.60;99.90
36186;DHT22;22228;53.222;7.446;2022-09-01T12:52:21;25.20;99.90
36186;DHT22;22228;53.222;7.446;2022-09-01T12:54:44;26.60;99.90
36186;DHT22;22228;53.222;7.446;2022-09-01T12:57:04;27.90;99.90
36186;DHT22;22228;53.222;7.446;2022-09-01T12:59:26;29.30;99.90
36186;DHT22;22228;53.222;7.446;2022-09-01T13:01:48;30.70;99.90
36186;DHT22;22228;53.222;7.446;2022-09-01T13:04:12;31.20;99.90
36186;DHT22;22228;53.222;7.446;2022-09-01T13:06:33;31.70;97.50
36186;DHT22;22228;53.222;7.446;2022-09-01T13:08:53;32.30;95.10
36186;DHT22;22228;53.222;7.446;2022-09-01T13:11:17;32.90;93.50
36186;DHT22;22228;53.222;7.446;2022-09-01T13:13:38;33.50;90.90
36186;DHT22;22228;53.222;7.446;2022-09-01T13:16:00;34.10;89.90
36186;DHT22;22228;53.222;7.446;2022-09-01T13:18:25;33.90;85.40
36186;DHT22;22228;53.222;7.446;2022-09-01T13:20:45;33.30;79.40
36186;DHT22;22228;53.222;7.446;2022-09-01T13:23:06;31.30;80.40
36186;DHT22;22228;53.222;7.446;2022-09-01T13:25:27;29.20;84.00
36186;DHT22;22228;53.222;7.446;2022-09-01T13:27:49;28.40;88.20
36186;DHT22;22228;53.222;7.446;2022-09-01T13:30:12;29.50;87.40
36186;DHT22;22228;53.222;7.446;2022-09-01T13:32:34;31.10;84.80
36186;DHT22;22228;53.222;7.446;2022-09-01T13:34:55;31.90;82.20
36186;DHT22;22228;53.222;7.446;2022-09-01T13:37:16;32.20;79.70
36186;DHT22;22228;53.222;7.446;2022-09-01T13:39:37;32.90;77.70
36186;DHT22;22228;53.222;7.446;2022-09-01T13:41:57;33.50;76.00
36186;DHT22;22228;53.222;7.446;2022-09-01T13:44:18;33.80;73.30
36186;DHT22;22228;53.222;7.446;2022-09-01T13:46:38;34.10;72.60
36186;DHT22;22228;53.222;7.446;2022-09-01T13:48:59;34.20;69.70
36186;DHT22;22228;53.222;7.446;2022-09-01T13:51:25;34.70;67.30
36186;DHT22;22228;53.222;7.446;2022-09-01T13:53:45;35.40;67.00
36186;DHT22;22228;53.222;7.446;2022-09-01T13:56:06;34.80;63.30
36186;DHT22;22228;53.222;7.446;2022-09-01T13:58:26;34.30;60.80
36186;DHT22;22228;53.222;7.446;2022-09-01T14:00:47;34.30;60.70
36186;DHT22;22228;53.222;7.446;2022-09-01T14:03:10;34.20;60.30
36186;DHT22;22228;53.222;7.446;2022-09-01T14:05:33;33.20;59.90
36186;DHT22;22228;53.222;7.446;2022-09-01T14:07:55;32.20;63.30
36186;DHT22;22228;53.222;7.446;2022-09-01T14:10:16;32.20;63.50
36186;DHT22;22228;53.222;7.446;2022-09-01T14:12:37;32.40;64.20
36186;DHT22;22228;53.222;7.446;2022-09-01T14:14:58;33.00;61.60
36186;DHT22;22228;53.222;7.446;2022-09-01T14:17:18;33.10;61.10
36186;DHT22;22228;53.222;7.446;2022-09-01T14:19:38;32.90;60.00
36186;DHT22;22228;53.222;7.446;2022-09-01T14:22:00;33.40;61.30
36186;DHT22;22228;53.222;7.446;2022-09-01T14:24:25;34.00;58.50
36186;DHT22;22228;53.222;7.446;2022-09-01T14:26:46;34.10;57.10
36186;DHT22;22228;53.222;7.446;2022-09-01T14:29:08;34.60;56.70
36186;DHT22;22228;53.222;7.446;2022-09-01T14:31:28;34.90;57.50
36186;DHT22;22228;53.222;7.446;2022-09-01T14:33:50;35.30;56.40
36186;DHT22;22228;53.222;7.446;2022-09-01T14:36:17;34.20;56.50
36186;DHT22;22228;53.222;7.446;2022-09-01T14:38:38;33.50;56.90
36186;DHT22;22228;53.222;7.446;2022-09-01T14:41:00;31.80;58.50
36186;DHT22;22228;53.222;7.446;2022-09-01T14:43:21;31.70;59.70
36186;DHT22;22228;53.222;7.446;2022-09-01T14:45:43;32.50;58.20
36186;DHT22;22228;53.222;7.446;2022-09-01T14:48:04;33.00;56.10
36186;DHT22;22228;53.222;7.446;2022-09-01T14:50:26;33.80;56.30
36186;DHT22;22228;53.222;7.446;2022-09-01T14:52:52;33.80;54.20
36186;DHT22;22228;53.222;7.446;2022-09-01T14:55:14;33.30;56.10
36186;DHT22;22228;53.222;7.446;2022-09-01T14:57:36;33.70;55.20
36186;DHT22;22228;53.222;7.446;2022-09-01T14:59:56;33.70;53.80
36186;DHT22;22228;53.222;7.446;2022-09-01T15:02:17;33.20;54.90
36186;DHT22;22228;53.222;7.446;2022-09-01T15:04:37;32.70;56.50
36186;DHT22;22228;53.222;7.446;2022-09-01T15:06:58;32.80;57.30
36186;DHT22;22228;53.222;7.446;2022-09-01T15:09:18;32.70;56.30
36186;DHT22;22228;53.222;7.446;2022-09-01T15:11:39;32.60;57.70
36186;DHT22;22228;53.222;7.446;2022-09-01T15:14:01;32.80;56.60